Dies, Texas
Current Conditions -  °F | °C
As of 1:15 PM on Thursday 23 Oct 2014 (Local Time) from KJAS Reporting Station
Clear Clear  
Wind Chill: 68°   Ceiling: Unl
Heat Index: 68°   Visibility: 10mi
Dew Point: 52°   Wind: 0mph
Humidity: 55%   Direction: NA
Pressure: 30.16"   Gusts: NA
Location:  30.7643°N, 94.4448°W
Report Text: KJAS 231815Z AUTO 00000KT 10SM CLR 20/11 A3016 RMK AO2 T02020109
Loading
Personal Weather Stations






























Interactive Weather Map New forecast layout! Learn more

10-Day Weather Forecast

Advertisements
Track Severe Weather on mobile